Detall de PIREP

Printer-friendly versionPDF version

[2014/11/07 09:28:00]
Flight IATA:CT3126
Pilot Number:042
Company ICAO:CAT
Aircraft Type:B463/A
PAX:46
Aircraft Registration:PAX
Departing Airport: LFMP
Destination Airport: LEZG
Alternate Airport:LEMD
Online: VATSIM
Route:BGR H110 REBUL G23 GRAUS
Flight Level:F230
No Slew and time accel
No pause
Crash detect
Detect pilot in Cockpit between each 30 and 45 minutes
09:28 Zero fuel Weight: 80445 Lbs, Fuel Weight: 20568 Lbs
09:28 VATSIM:LFMP 070900Z 00000KT CAVOK 12/05 Q1011 NOSIG
09:28 VATSIM:LEZG 070900Z 08006KT 050V110 9999 FEW040 SCT055 10/06 Q1013
09:36 Parking Brakes off
09:42 Take-off
09:42 Take off Weight: 99930 Lbs
09:42 Wind: 139º @ 011 Knots Heading: 147º
09:42 POS N42º 44´ 23´´ E002º 52´ 25´´
09:42 Flaps:2 at 149 Knots
09:42 Gear Up: 145 Knots
09:43 Flaps:1 at 159 Knots
09:44 Flaps:0 at 195 Knots
09:53 TOC
09:53 Fuel Weight: 17430 Lb
09:57 Wind:351º@017 Knots Heading: 265º Ground Speed: 359 Knots Altitude 23136 ft
10:12 Wind:357º@017 Knots Heading: 297º Ground Speed: 352 Knots Altitude 23139 ft
10:17 TOD
10:17 Fuel Weight: 15688 Lb
10:27 Wind:305º@007 Knots Heading: 216º Ground Speed: 233 Knots Altitude 9662 ft
10:27 Flaps:1 at 184 Knots
10:33 Flaps:2 at 178 Knots
10:34 Flaps:3 at 176 Knots
10:34 Gear Down: 176 Knots
10:34 Flaps:4 at 172 Knots
10:37 TouchDown:Rate -137 ft/min Speed: 114 Knots
10:37 VATSIM:LEZG 071030Z 08005KT 9999 FEW045 SCT085 13/07 Q1013
10:37 Land
10:37 Wind:075º@004 Knots
10:37 Heading: 299º
10:37 Flight Duration: 00:55
10:37 Landing Weight: 95154 Lbs
10:37 POS N41º 39´ 42´´ W001º 01´ 23´´
10:40 Parking brakes on
10:40 Block to Block Duration: 01:04
10:40 Final Fuel: 14481 Lbls
10:40 Spent Fuel: 6086 Lbls
10:40 Flight Length: 272 NM
10:40 TOD Land Length: 78 NM

Exportar CSV

Powered by Drupal - Modified by Danger4k